Terminal Aerodrome Forecast
Issued by NWS Wakefield, VA

Home | Current Version | Previous Version | Text Only | Print | Product List | Glossary On
Versions: 1 2 3 4 5 6 7 8 9 10 11 12 13 14 15 16 17
000
FTUS41 KAKQ 060530
TAFSBY
TAF
KSBY 060530Z 0606/0706 12003KT P6SM SCT020 BKN090
      TEMPO 0606/0610 4SM -SHRA BR BKN020
     FM061000 12003KT 3SM BR BKN005 OVC020
     FM061500 16009KT P6SM VCSH BKN040 BKN100
     FM070000 16004KT P6SM BKN100=

USA.gov is the U.S. government's official web portal to all federal, state and local government web resources and services.